Time;durP1;ratioP1;P1;durP2;ratioP2;P2;SDS_P1;SDS_P2;PMS_P1;PMS_P2;Temp;Humidity;BMP_temperature;BMP_pressure;BME280_temperature;BME280_humidity;BME280_pressure;Samples;Min_cycle;Max_cycle;Signal;HPM_P1;HPM_P2
2022/01/31 00:01:07;;;;;;;;;8.00;8.00;;;;;8.68;59.67;101871.16;5120736;27;46946;-85
2022/01/31 00:03:34;;;;;;;;;14.00;13.00;;;;;8.33;59.70;101841.34;5140058;27;45392;-84
2022/01/31 00:06:03;;;;;;;;;17.67;14.67;;;;;8.54;59.60;101879.38;5139922;27;45405;-85
2022/01/31 00:08:29;;;;;;;;;11.67;8.00;;;;;8.38;60.24;101855.66;5131804;27;45488;-83
2022/01/31 00:10:54;;;;;;;;;13.33;8.67;;;;;8.15;60.39;101802.63;5121064;27;47347;-84
2022/01/31 00:13:25;;;;;;;;;11.00;8.00;;;;;7.98;60.71;101801.88;5140154;27;45306;-84
2022/01/31 00:15:54;;;;;;;;;8.33;5.00;;;;;8.37;60.61;101854.75;5140023;27;45404;-85
2022/01/31 00:18:19;;;;;;;;;12.67;8.67;;;;;8.19;60.91;101820.44;5120393;27;45253;-88
2022/01/31 00:20:45;;;;;;;;;10.00;9.67;;;;;8.16;60.71;101807.09;5120243;27;47109;-85
2022/01/31 00:23:10;;;;;;;;;8.00;8.00;;;;;8.18;60.96;101804.53;5124475;27;45492;-85
2022/01/31 00:25:36;;;;;;;;;11.67;8.00;;;;;7.93;61.16;101750.53;5109966;27;45769;-85
2022/01/31 00:28:01;;;;;;;;;9.67;8.33;;;;;8.05;60.83;101748.47;5108170;27;45432;-85
2022/01/31 00:30:26;;;;;;;;;9.67;8.67;;;;;8.39;61.13;101809.88;5099867;27;47155;-85
2022/01/31 00:32:52;;;;;;;;;12.00;8.00;;;;;8.00;61.47;101743.78;5101303;27;45843;-86
2022/01/31 00:35:17;;;;;;;;;9.00;8.00;;;;;8.08;61.74;101766.19;5119871;27;45854;-85
2022/01/31 00:37:43;;;;;;;;;11.33;8.00;;;;;8.11;62.57;101783.94;5132638;27;45469;-85
2022/01/31 00:40:09;;;;;;;;;9.33;8.33;;;;;8.09;62.48;101775.94;5107239;27;47316;-84
2022/01/31 00:42:36;;;;;;;;;8.67;8.67;;;;;7.96;62.96;101762.97;5099733;27;45843;-89
2022/01/31 00:47:33;;;;;;;;;8.67;7.00;;;;;8.11;62.55;101797.16;5138295;27;45468;-85
2022/01/31 00:50:09;;;;;;;;;8.67;8.67;;;;;7.54;62.44;101698.59;5120237;27;48158;-86
2022/01/31 00:52:38;;;;;;;;;11.33;9.00;;;;;7.98;62.40;101758.69;5120262;27;45805;-86
2022/01/31 00:55:07;;;;;;;;;12.00;9.00;;;;;7.79;62.43;101747.28;5138699;27;45193;-86
2022/01/31 00:57:32;;;;;;;;;13.00;10.00;;;;;7.73;62.38;101723.22;5120346;27;45650;-86
2022/01/31 00:59:58;;;;;;;;;5.33;4.00;;;;;8.09;62.08;101765.38;5119636;27;47159;-86
2022/01/31 01:02:24;;;;;;;;;7.00;6.67;;;;;8.03;62.11;101765.06;5119201;27;45716;-86
2022/01/31 01:04:51;;;;;;;;;6.00;3.67;;;;;8.12;62.44;101765.50;5130997;27;45313;-86
2022/01/31 01:07:19;;;;;;;;;8.00;5.33;;;;;8.02;62.04;101737.75;5099251;27;45656;-86
2022/01/31 01:09:45;;;;;;;;;5.33;3.00;;;;;8.23;61.80;101743.09;5115863;27;48029;-86
2022/01/31 01:12:12;;;;;;;;;9.67;4.33;;;;;7.98;62.24;101708.50;5115680;27;45658;-86
2022/01/31 01:14:38;;;;;;;;;8.67;4.00;;;;;8.13;61.92;101746.19;5118015;27;45242;-86
2022/01/31 01:17:04;;;;;;;;;4.00;4.00;;;;;8.36;61.90;101770.09;5117622;27;45510;-86
2022/01/31 01:19:30;;;;;;;;;4.67;4.00;;;;;8.26;62.11;101768.78;5116349;27;47206;-86
2022/01/31 01:21:55;;;;;;;;;5.33;3.00;;;;;8.04;62.21;101709.66;5099147;27;45788;-86
2022/01/31 01:24:21;;;;;;;;;6.00;4.00;;;;;8.15;62.28;101723.34;5099174;27;45504;-86
2022/01/31 01:26:48;;;;;;;;;2.33;2.33;;;;;7.93;62.28;101718.81;5116408;27;45577;-87
2022/01/31 01:29:14;;;;;;;;;4.00;3.00;;;;;8.14;62.47;101712.69;5098994;27;48232;-86
2022/01/31 01:31:39;;;;;;;;;6.00;3.33;;;;;8.07;62.78;101695.66;5117088;27;45404;-86
2022/01/31 01:34:05;;;;;;;;;7.00;5.33;;;;;8.01;63.05;101700.69;5130117;27;45268;-86
2022/01/31 01:36:32;;;;;;;;;3.33;2.33;;;;;7.88;63.23;101670.19;5138594;27;45447;-86
2022/01/31 01:38:58;;;;;;;;;7.00;3.33;;;;;7.85;63.29;101644.50;5119441;27;47605;-86
2022/01/31 01:41:23;;;;;;;;;2.33;2.00;;;;;8.11;63.05;101665.00;5137973;27;45434;-87
2022/01/31 01:43:49;;;;;;;;;2.33;2.33;;;;;7.90;63.14;101619.22;5138278;27;45316;-86
2022/01/31 01:46:14;;;;;;;;;6.67;4.67;;;;;8.08;63.47;101658.72;5137901;27;45267;-86
2022/01/31 01:48:39;;;;;;;;;3.33;2.33;;;;;7.77;64.24;101631.81;5119120;27;46856;-85
2022/01/31 01:51:06;;;;;;;;;1.00;1.00;;;;;8.04;63.59;101640.03;5138088;27;45320;-85
2022/01/31 01:53:31;;;;;;;;;6.33;3.00;;;;;7.98;63.76;101634.50;5119219;27;45488;-84
2022/01/31 01:55:57;;;;;;;;;4.00;3.00;;;;;8.18;63.99;101662.66;5119414;27;45464;-86
2022/01/31 01:58:25;;;;;;;;;5.00;3.33;;;;;8.22;64.36;101667.25;5137539;27;45756;-85
2022/01/31 02:01:02;;;;;;;;;7.00;4.00;;;;;8.03;64.55;101656.72;5137951;27;45400;-85
2022/01/31 02:03:29;;;;;;;;;3.00;1.67;;;;;8.10;65.14;101682.59;5141665;27;45480;-86
2022/01/31 02:05:56;;;;;;;;;2.00;2.00;;;;;7.64;65.68;101598.66;5122964;27;45394;-85
2022/01/31 02:08:22;;;;;;;;;3.00;0.00;;;;;8.13;65.50;101668.59;5122624;27;47089;-86
2022/01/31 02:10:48;;;;;;;;;7.00;2.00;;;;;8.17;65.32;101660.88;5122832;27;45512;-85
2022/01/31 02:13:17;;;;;;;;;2.33;1.00;;;;;7.84;65.70;101640.06;5122851;27;45368;-86
2022/01/31 02:15:50;;;;;;;;;4.00;2.00;;;;;7.86;66.33;101619.91;5122479;27;45283;-86
2022/01/31 02:18:18;;;;;;;;;6.67;3.67;;;;;8.14;66.12;101649.28;5141116;27;46183;-86
2022/01/31 02:20:44;;;;;;;;;6.67;2.00;;;;;8.13;66.69;101637.81;5141617;27;45451;-85
2022/01/31 02:23:11;;;;;;;;;4.00;3.00;;;;;8.07;66.51;101621.66;5142704;27;45431;-85
2022/01/31 02:25:58;;;;;;;;;2.00;2.00;;;;;8.17;66.62;101607.09;5142569;27;45426;-85
2022/01/31 02:28:26;;;;;;;;;8.00;2.67;;;;;8.33;67.41;101633.34;5141207;27;46169;-86
2022/01/31 02:30:52;;;;;;;;;6.00;3.00;;;;;7.74;68.46;101537.47;5141403;27;45358;-86
2022/01/31 02:33:18;;;;;;;;;3.00;3.00;;;;;7.95;68.41;101565.66;5122299;27;45337;-85
2022/01/31 02:35:55;;;;;;;;;3.67;2.67;;;;;7.87;69.24;101542.44;5122341;27;45362;-85
2022/01/31 02:38:20;;;;;;;;;6.00;3.00;;;;;8.26;69.34;101585.47;5122022;27;47248;-85
2022/01/31 02:40:46;;;;;;;;;4.00;2.00;;;;;7.77;69.73;101513.84;5122531;27;46043;-86
2022/01/31 02:43:21;;;;;;;;;2.67;2.33;;;;;7.90;69.67;101532.03;5122273;27;45362;-85
2022/01/31 02:45:47;;;;;;;;;2.67;2.33;;;;;7.99;69.55;101528.84;5141194;27;45299;-86
2022/01/31 02:48:15;;;;;;;;;2.67;2.00;;;;;7.84;70.15;101521.19;5140745;27;45418;-85
2022/01/31 02:50:40;;;;;;;;;3.00;2.00;;;;;7.88;70.48;101528.41;5122862;27;45349;-86
2022/01/31 02:55:51;;;;;;;;;2.67;2.67;;;;;8.28;69.71;101574.09;5145044;27;45234;-85
2022/01/31 02:58:17;;;;;;;;;5.00;2.67;;;;;8.24;70.06;101556.28;5121591;27;47231;-84
2022/01/31 03:00:43;;;;;;;;;6.00;2.00;;;;;8.28;69.89;101570.56;5140712;27;45549;-85
2022/01/31 03:03:09;;;;;;;;;1.33;1.33;;;;;8.05;70.54;101555.53;5140627;27;45451;-85
2022/01/31 03:05:35;;;;;;;;;4.33;3.00;;;;;7.71;71.41;101514.47;5107679;27;45427;-85
2022/01/31 03:08:01;;;;;;;;;3.67;1.00;;;;;7.96;71.92;101560.44;5119558;27;46280;-85
2022/01/31 03:10:27;;;;;;;;;4.00;3.00;;;;;7.87;71.54;101541.53;5100871;27;45521;-85
2022/01/31 03:12:52;;;;;;;;;4.00;3.00;;;;;7.84;71.55;101526.47;5119443;27;45585;-86
2022/01/31 03:15:17;;;;;;;;;3.00;0.67;;;;;7.77;71.87;101529.69;5118301;27;45542;-86
2022/01/31 03:17:47;;;;;;;;;7.67;4.67;;;;;8.06;72.13;101543.25;5119637;27;45655;-86
2022/01/31 03:20:15;;;;;;;;;3.33;2.67;;;;;8.07;72.48;101534.44;5119839;27;45533;-86
2022/01/31 03:22:41;;;;;;;;;6.00;2.00;;;;;7.87;72.62;101500.16;5118341;27;45428;-86
2022/01/31 03:25:07;;;;;;;;;2.67;2.00;;;;;8.09;72.86;101524.84;5119777;27;45279;-86
2022/01/31 03:27:32;;;;;;;;;2.67;1.00;;;;;7.95;72.91;101476.72;5118601;27;47378;-85
2022/01/31 03:29:58;;;;;;;;;1.00;1.00;;;;;8.08;73.42;101459.63;5120868;27;45389;-86
2022/01/31 03:32:23;;;;;;;;;7.67;2.00;;;;;8.10;74.61;101483.47;5118304;27;45440;-87
2022/01/31 03:34:48;;;;;;;;;2.00;1.67;;;;;8.16;74.78;101479.34;5118379;27;45306;-86
2022/01/31 03:37:13;;;;;;;;;0.67;0.33;;;;;8.55;74.18;101521.47;5101408;27;47223;-85
2022/01/31 03:39:39;;;;;;;;;2.00;1.00;;;;;8.43;74.77;101506.84;5100900;27;45475;-88
2022/01/31 03:42:05;;;;;;;;;1.00;1.00;;;;;8.42;75.31;101476.81;5118063;27;45337;-85
2022/01/31 03:44:30;;;;;;;;;2.00;2.00;;;;;8.17;75.32;101425.63;5118217;27;45350;-85
2022/01/31 03:46:57;;;;;;;;;4.67;2.00;;;;;8.40;75.44;101454.72;5119330;27;45533;-85
2022/01/31 03:49:22;;;;;;;;;3.00;1.00;;;;;8.35;75.20;101436.00;5118162;27;45331;-87
2022/01/31 03:51:47;;;;;;;;;3.00;0.00;;;;;8.75;75.95;101521.34;5101596;27;45251;-87
2022/01/31 03:54:13;;;;;;;;;0.00;0.00;;;;;8.16;77.39;101405.31;5118855;27;45608;-87
2022/01/31 03:56:39;;;;;;;;;1.00;0.00;;;;;8.13;78.83;101404.28;5118220;27;48220;-88
2022/01/31 03:59:05;;;;;;;;;1.00;1.00;;;;;8.74;79.19;101503.66;5101150;27;45414;-87
2022/01/31 04:01:31;;;;;;;;;1.67;0.00;;;;;8.73;80.59;101491.28;5118224;27;45470;-87
2022/01/31 04:03:56;;;;;;;;;2.00;1.00;;;;;8.76;81.14;101517.84;5127838;27;45240;-87
2022/01/31 04:06:23;;;;;;;;;1.00;1.00;;;;;8.12;81.53;101398.13;5130397;27;46454;-86
2022/01/31 04:08:49;;;;;;;;;3.00;1.00;;;;;8.13;81.34;101412.22;5114860;27;45337;-86
2022/01/31 04:11:15;;;;;;;;;2.67;1.00;;;;;8.21;81.63;101429.28;5135414;27;45416;-88
2022/01/31 04:13:40;;;;;;;;;2.00;0.00;;;;;8.33;81.92;101437.72;5101547;27;45432;-87
2022/01/31 04:16:05;;;;;;;;;1.00;1.00;;;;;8.14;82.37;101417.56;5101144;27;47311;-88
2022/01/31 04:18:32;;;;;;;;;1.33;1.00;;;;;8.10;82.91;101443.81;5118470;27;45222;-87
2022/01/31 04:20:57;;;;;;;;;3.00;1.67;;;;;8.02;82.93;101435.59;5100882;27;45523;-86
2022/01/31 04:23:26;;;;;;;;;1.67;1.00;;;;;8.41;83.11;101488.25;5111273;27;45508;-84
2022/01/31 04:25:55;;;;;;;;;4.00;1.00;;;;;8.32;83.11;101475.56;5118135;27;45513;-89
2022/01/31 04:28:26;;;;;;;;;3.00;1.00;;;;;8.48;82.41;101470.91;5106406;27;46009;-86
2022/01/31 04:31:38;;;;;;;;;3.00;3.00;;;;;8.40;81.70;101446.78;5120400;27;45529;-90
2022/01/31 04:33:46;;;;;;;;;2.00;1.00;;;;;8.25;81.82;101455.00;5134548;27;45511;-88
2022/01/31 04:36:14;;;;;;;;;3.00;1.00;;;;;8.45;82.09;101471.69;5121508;27;48541;-88
2022/01/31 04:38:40;;;;;;;;;1.67;1.00;;;;;8.75;81.94;101531.94;5120899;27;45395;-88
2022/01/31 04:41:05;;;;;;;;;1.00;1.00;;;;;8.39;81.59;101444.97;5116835;27;45468;-87
2022/01/31 04:43:32;;;;;;;;;1.00;0.00;;;;;8.25;81.70;101431.22;5100558;27;45311;-87
2022/01/31 04:46:00;;;;;;;;;1.67;0.00;;;;;8.45;81.12;101455.81;5101920;27;48555;-88
2022/01/31 04:48:26;;;;;;;;;1.00;1.00;;;;;8.53;80.90;101454.38;5120962;27;45690;-87
2022/01/31 04:50:51;;;;;;;;;0.00;0.00;;;;;8.80;80.02;101463.31;5120914;27;45350;-86
2022/01/31 04:53:17;;;;;;;;;0.50;0.50;;;;;9.01;80.34;101503.78;5117313;27;45547;-89
2022/01/31 04:55:42;;;;;;;;;1.00;1.00;;;;;8.81;80.23;101451.88;5120028;27;46976;-84
2022/01/31 04:58:08;;;;;;;;;1.00;1.00;;;;;9.13;79.71;101513.97;5120654;27;45412;-89
2022/01/31 05:00:34;;;;;;;;;2.75;1.00;;;;;9.07;79.93;101496.09;5139625;27;45471;-86
2022/01/31 05:03:00;;;;;;;;;1.00;0.75;;;;;8.83;79.64;101447.53;5118691;27;45670;-86
2022/01/31 05:05:25;;;;;;;;;2.75;1.00;;;;;8.78;79.39;101436.78;5119511;27;47200;-85
2022/01/31 05:07:53;;;;;;;;;0.00;0.00;;;;;9.13;79.11;101484.84;5119105;27;45472;-85
2022/01/31 05:10:19;;;;;;;;;1.67;0.67;;;;;9.34;78.88;101516.50;5119860;27;45338;-86
2022/01/31 05:12:44;;;;;;;;;1.67;0.67;;;;;9.34;78.14;101500.59;5138196;27;45454;-86
2022/01/31 05:15:10;;;;;;;;;4.00;1.00;;;;;9.20;77.56;101455.09;5111743;27;47119;-85
2022/01/31 05:17:36;;;;;;;;;2.00;1.00;;;;;9.41;77.42;101499.97;5116150;27;45474;-86
2022/01/31 05:20:02;;;;;;;;;1.00;1.00;;;;;9.46;76.83;101502.78;5101096;27;45373;-83
2022/01/31 05:22:28;;;;;;;;;1.00;1.00;;;;;9.68;76.18;101532.69;5098804;27;45283;-83
2022/01/31 05:24:53;;;;;;;;;0.67;0.67;;;;;9.46;75.05;101497.47;5117354;27;45621;-85
2022/01/31 05:27:18;;;;;;;;;1.00;1.00;;;;;9.69;74.65;101523.88;5124806;27;45478;-83
2022/01/31 05:29:44;;;;;;;;;4.00;1.00;;;;;9.46;74.11;101504.53;5118953;27;45678;-82
2022/01/31 05:32:09;;;;;;;;;2.00;1.00;;;;;9.42;74.28;101515.03;5138394;27;45571;-85
2022/01/31 05:34:34;;;;;;;;;1.00;1.00;;;;;9.37;73.58;101507.75;5119611;27;48149;-85
2022/01/31 05:37:00;;;;;;;;;2.33;1.00;;;;;9.15;74.10;101475.19;5116981;27;45754;-85
2022/01/31 05:39:26;;;;;;;;;2.67;2.00;;;;;9.66;73.64;101555.56;5119834;27;45666;-85
2022/01/31 05:41:52;;;;;;;;;1.00;1.00;;;;;9.63;73.52;101560.75;5119731;27;45599;-84
2022/01/31 05:44:19;;;;;;;;;1.00;1.00;;;;;9.32;72.83;101486.38;5116363;27;47594;-88
2022/01/31 05:46:44;;;;;;;;;0.00;0.00;;;;;9.06;72.21;101459.00;5105020;27;45452;-86
2022/01/31 05:49:10;;;;;;;;;0.00;0.00;;;;;9.38;70.06;101502.53;5112633;27;45492;-84
2022/01/31 05:51:47;;;;;;;;;1.00;1.00;;;;;9.19;70.60;101471.81;5116935;27;45511;-84
2022/01/31 05:54:12;;;;;;;;;2.67;1.33;;;;;9.32;69.66;101501.38;5111503;27;48095;-85
2022/01/31 05:56:38;;;;;;;;;1.00;1.00;;;;;9.47;68.11;101528.44;5136499;27;45555;-83
2022/01/31 05:59:03;;;;;;;;;4.00;2.33;;;;;9.01;67.23;101472.03;5118990;27;45400;-84
2022/01/31 06:01:28;;;;;;;;;1.00;1.00;;;;;9.43;66.41;101521.22;5115634;27;45553;-85
2022/01/31 06:03:54;;;;;;;;;0.33;0.33;;;;;9.04;66.59;101458.03;5109699;27;46205;-86
2022/01/31 06:06:19;;;;;;;;;0.00;0.00;;;;;9.37;65.36;101523.66;5112659;27;45910;-84
2022/01/31 06:08:44;;;;;;;;;1.33;1.00;;;;;9.40;65.61;101543.19;5100465;27;45298;-84
2022/01/31 06:11:10;;;;;;;;;2.00;2.00;;;;;9.42;65.59;101551.19;5095758;27;45257;-84
2022/01/31 06:13:35;;;;;;;;;2.50;0.00;;;;;8.86;64.88;101477.69;5094711;27;47050;-84
2022/01/31 06:16:00;;;;;;;;;1.33;1.00;;;;;9.13;65.57;101518.31;5098023;27;45513;-84
2022/01/31 06:18:26;;;;;;;;;0.33;0.00;;;;;9.15;65.91;101506.97;5116547;27;45189;-84
2022/01/31 06:20:51;;;;;;;;;2.00;0.00;;;;;9.09;65.45;101509.38;5111426;27;45371;-84
2022/01/31 06:23:17;;;;;;;;;1.00;1.00;;;;;8.88;65.32;101478.63;5096247;27;45551;-85
2022/01/31 06:25:42;;;;;;;;;1.50;1.00;;;;;8.81;65.49;101481.00;5106627;27;45424;-85
2022/01/31 06:28:07;;;;;;;;;0.00;0.00;;;;;9.02;65.13;101515.31;5094960;27;45253;-84
2022/01/31 06:30:36;;;;;;;;;2.75;0.00;;;;;9.17;64.36;101520.25;5112427;27;45313;-85
2022/01/31 06:33:02;;;;;;;;;3.00;0.00;;;;;9.30;63.45;101540.16;5095212;27;47223;-85
2022/01/31 06:35:27;;;;;;;;;3.00;2.00;;;;;8.81;64.00;101470.41;5096128;27;45396;-85
2022/01/31 06:37:53;;;;;;;;;1.50;1.50;;;;;8.85;64.13;101469.69;5111785;27;45397;-85
2022/01/31 06:40:18;;;;;;;;;2.00;1.00;;;;;8.57;63.10;101432.50;5111451;27;45500;-85
2022/01/31 06:42:44;;;;;;;;;0.00;0.00;;;;;8.94;62.98;101512.34;5108503;27;45497;-85
2022/01/31 06:45:09;;;;;;;;;1.00;0.00;;;;;8.77;63.04;101479.06;5115096;27;45250;-84
2022/01/31 06:47:35;;;;;;;;;2.25;1.00;;;;;9.13;63.03;101535.13;5097407;27;45518;-82
2022/01/31 06:50:04;;;;;;;;;2.00;0.00;;;;;8.93;62.41;101519.41;5097893;27;45379;-82
2022/01/31 06:52:33;;;;;;;;;1.00;1.00;;;;;8.94;63.69;101541.47;5103951;27;45534;-83
2022/01/31 06:55:02;;;;;;;;;1.00;1.00;;;;;8.96;62.85;101544.16;5101479;27;45449;-83
2022/01/31 06:57:33;;;;;;;;;0.50;0.00;;;;;8.99;62.48;101524.03;5106823;27;46548;-77
2022/01/31 07:00:06;;;;;;;;;3.00;0.00;;;;;9.06;62.57;101562.22;5116888;27;45393;-78
2022/01/31 07:02:32;;;;;;;;;2.00;0.33;;;;;9.02;63.26;101549.72;5113307;27;45509;-78
2022/01/31 07:04:57;;;;;;;;;2.33;1.67;;;;;9.02;63.31;101547.06;5117302;27;45331;-78
2022/01/31 07:07:22;;;;;;;;;3.00;1.00;;;;;9.01;63.29;101564.66;5119696;27;45495;-77
2022/01/31 07:09:48;;;;;;;;;2.00;1.00;;;;;8.98;63.04;101553.97;5124374;27;45311;-78
2022/01/31 07:12:16;;;;;;;;;2.33;2.33;;;;;9.02;62.90;101561.19;5137872;27;46473;-76
2022/01/31 07:14:42;;;;;;;;;1.00;1.00;;;;;9.04;63.19;101563.91;5139699;27;45254;-76
2022/01/31 07:17:07;;;;;;;;;1.67;1.33;;;;;9.06;62.82;101572.81;5139298;27;45732;-77
2022/01/31 07:19:36;;;;;;;;;3.00;2.00;;;;;8.99;62.54;101573.44;5139888;27;45499;-77
2022/01/31 07:22:06;;;;;;;;;3.67;1.00;;;;;8.80;62.65;101542.69;5129216;27;45392;-77
2022/01/31 07:24:45;;;;;;;;;5.33;1.00;;;;;8.82;62.38;101554.22;5139704;27;45224;-77
2022/01/31 07:27:11;;;;;;;;;1.33;1.33;;;;;8.84;62.37;101563.13;5133855;27;45464;-77
2022/01/31 07:29:38;;;;;;;;;0.00;0.00;;;;;8.78;62.76;101554.97;5107531;27;45503;-78
2022/01/31 07:32:04;;;;;;;;;2.00;0.00;;;;;8.98;62.52;101591.03;5101826;27;46142;-77
2022/01/31 07:34:29;;;;;;;;;4.33;2.00;;;;;8.80;62.62;101566.50;5121971;27;45641;-77
2022/01/31 07:36:55;;;;;;;;;2.00;1.00;;;;;8.87;62.89;101577.38;5136950;27;45414;-79
2022/01/31 07:39:21;;;;;;;;;2.00;1.00;;;;;8.69;62.28;101539.63;5128641;27;45496;-78
2022/01/31 07:41:47;;;;;;;;;2.00;2.00;;;;;8.95;62.56;101579.44;5139687;27;46333;-77
2022/01/31 07:44:13;;;;;;;;;2.33;0.33;;;;;8.93;62.83;101572.34;5133844;27;45364;-78
2022/01/31 07:46:39;;;;;;;;;0.50;0.00;;;;;8.96;62.42;101603.31;5118933;27;45373;-78
2022/01/31 07:49:06;;;;;;;;;5.33;1.00;;;;;8.92;62.41;101578.47;5108179;27;45485;-78
2022/01/31 07:51:35;;;;;;;;;4.00;0.00;;;;;8.93;62.72;101600.56;5120243;27;48315;-78
2022/01/31 07:54:04;;;;;;;;;1.00;1.00;;;;;9.00;62.56;101601.66;5138785;27;45415;-78
2022/01/31 07:56:30;;;;;;;;;2.00;1.00;;;;;8.99;62.88;101610.47;5138955;27;45528;-79
2022/01/31 07:58:55;;;;;;;;;1.67;1.00;;;;;8.91;62.95;101603.13;5119622;27;45383;-77
2022/01/31 08:01:20;;;;;;;;;1.00;1.00;;;;;8.85;61.85;101621.41;5135961;27;45405;-77
2022/01/31 08:03:47;;;;;;;;;3.67;1.00;;;;;8.97;61.94;101620.09;5137575;27;45696;-78
2022/01/31 08:06:13;;;;;;;;;0.67;0.67;;;;;8.93;61.99;101619.09;5130275;27;45515;-78
2022/01/31 08:08:38;;;;;;;;;1.00;1.00;;;;;9.10;61.76;101655.03;5108182;27;45592;-78
2022/01/31 08:11:05;;;;;;;;;2.00;0.00;;;;;9.01;62.31;101643.19;5138880;27;46553;-77
2022/01/31 08:13:32;;;;;;;;;2.50;1.00;;;;;8.95;61.92;101632.38;5110286;27;45524;-78
2022/01/31 08:18:32;;;;;;;;;2.00;2.00;;;;;8.72;61.25;101588.28;5119201;27;45536;-78
2022/01/31 08:20:59;;;;;;;;;2.00;1.00;;;;;8.99;61.49;101614.00;5120896;27;45832;-78
2022/01/31 08:23:24;;;;;;;;;2.00;1.00;;;;;9.05;61.70;101611.59;5119410;27;45670;-78
2022/01/31 08:25:50;;;;;;;;;3.33;1.00;;;;;9.13;61.60;101637.47;5129897;27;45452;-78
2022/01/31 08:28:18;;;;;;;;;2.00;1.00;;;;;8.85;61.82;101602.00;5117887;27;45534;-78
2022/01/31 08:30:58;;;;;;;;;0.67;0.33;;;;;9.02;61.54;101605.31;5118206;27;47809;-79
2022/01/31 08:36:02;;;;;;;;;2.00;2.00;;;;;9.30;61.27;101625.78;5126817;27;45472;-78
2022/01/31 08:38:27;;;;;;;;;2.00;1.00;;;;;9.26;61.82;101638.00;5128750;27;45469;-78
2022/01/31 08:40:53;;;;;;;;;1.33;1.00;;;;;9.12;61.42;101602.16;5133349;27;45753;-78
2022/01/31 08:43:20;;;;;;;;;0.00;0.00;;;;;9.29;61.35;101628.38;5119706;27;45779;-77
2022/01/31 08:45:46;;;;;;;;;2.33;1.00;;;;;9.41;61.21;101645.63;5138384;27;45376;-78
2022/01/31 08:48:11;;;;;;;;;4.33;1.00;;;;;9.06;61.55;101629.28;5118321;27;45595;-78
2022/01/31 08:50:37;;;;;;;;;3.33;2.33;;;;;9.21;62.10;101659.84;5117749;27;45375;-78
2022/01/31 08:53:03;;;;;;;;;1.67;0.33;;;;;9.28;61.46;101667.19;5099435;27;45852;-78
2022/01/31 08:55:29;;;;;;;;;3.00;3.00;;;;;9.11;61.51;101658.59;5117858;27;45545;-77
2022/01/31 08:57:56;;;;;;;;;2.00;2.00;;;;;9.37;60.95;101690.50;5129935;27;45381;-77
2022/01/31 09:00:34;;;;;;;;;4.00;2.00;;;;;9.27;60.32;101679.53;5117744;27;45543;-78
2022/01/31 09:03:16;;;;;;;;;3.33;1.00;;;;;9.30;60.65;101667.28;5106741;27;45702;-78
2022/01/31 09:05:42;;;;;;;;;2.00;1.00;;;;;9.19;60.72;101621.84;5119761;27;45405;-78
2022/01/31 09:08:08;;;;;;;;;2.00;2.00;;;;;9.34;60.98;101667.44;5112540;27;45317;-78
2022/01/31 09:10:34;;;;;;;;;0.00;0.00;;;;;9.32;60.33;101613.50;5135883;27;46690;-78
2022/01/31 09:12:59;;;;;;;;;2.33;1.33;;;;;9.10;60.40;101591.50;5122940;27;45345;-78
2022/01/31 09:15:25;;;;;;;;;3.00;1.00;;;;;9.32;60.07;101602.91;5117367;27;45278;-78
2022/01/31 09:17:51;;;;;;;;;2.67;1.67;;;;;9.33;59.40;101603.81;5107330;27;45525;-78
2022/01/31 09:20:17;;;;;;;;;3.00;1.00;;;;;9.51;60.38;101646.91;5121151;27;45520;-78
2022/01/31 09:22:43;;;;;;;;;1.67;1.33;;;;;9.34;59.91;101626.78;5133431;27;45504;-78
2022/01/31 09:25:10;;;;;;;;;2.67;1.67;;;;;9.56;60.14;101631.16;5123648;27;45230;-78
2022/01/31 09:27:36;;;;;;;;;4.33;1.00;;;;;9.56;59.63;101628.50;5130619;27;45787;-78
2022/01/31 09:30:04;;;;;;;;;11.67;10.33;;;;;9.50;59.61;101609.75;5123720;27;45622;-77
2022/01/31 09:32:29;;;;;;;;;3.00;2.33;;;;;9.54;58.99;101617.84;5121558;27;45465;-78
2022/01/31 09:34:55;;;;;;;;;3.67;3.00;;;;;9.48;59.21;101622.94;5132316;27;45446;-82
2022/01/31 09:37:21;;;;;;;;;2.33;1.33;;;;;9.65;58.61;101646.50;5132781;27;45276;-78
2022/01/31 09:39:48;;;;;;;;;2.67;1.00;;;;;9.49;58.40;101637.06;5131117;27;45488;-84
2022/01/31 09:42:23;;;;;;;;;1.00;1.00;;;;;8.92;57.97;101553.75;5117068;27;45256;-82
2022/01/31 09:45:04;;;;;;;;;1.00;1.00;;;;;9.07;58.35;101562.28;5125345;27;45450;-82
2022/01/31 09:50:03;;;;;;;;;3.67;1.00;;;;;9.59;57.67;101633.91;5121561;27;45903;-83
2022/01/31 09:52:28;;;;;;;;;2.67;1.33;;;;;9.23;57.65;101582.28;5116332;27;45746;-83
2022/01/31 09:54:53;;;;;;;;;5.50;1.50;;;;;9.55;57.58;101605.50;5114879;27;45495;-84
2022/01/31 09:57:19;;;;;;;;;1.00;1.00;;;;;9.12;57.26;101530.69;5116403;27;45618;-83
2022/01/31 09:59:44;;;;;;;;;4.00;2.00;;;;;9.39;57.38;101614.63;5109024;27;48162;-84
2022/01/31 10:02:12;;;;;;;;;4.00;1.00;;;;;9.01;57.16;101538.19;5115796;27;45765;-84
2022/01/31 10:04:43;;;;;;;;;1.67;1.67;;;;;9.10;57.40;101553.56;5117296;27;45466;-84
2022/01/31 10:07:09;;;;;;;;;6.33;2.00;;;;;9.54;57.92;101677.91;5126806;27;45337;-84
2022/01/31 10:09:34;;;;;;;;;3.00;0.33;;;;;9.54;58.51;101721.19;5107205;27;47695;-86
2022/01/31 10:12:06;;;;;;;;;1.33;0.33;;;;;9.44;59.76;101750.81;5113308;27;45738;-85
2022/01/31 10:17:45;;;;;;;;;3.67;1.33;;;;;9.13;64.12;101686.03;5129931;27;45389;-84
2022/01/31 10:20:31;;;;;;;;;4.00;1.00;;;;;8.97;63.30;101699.47;5113651;27;46706;-82
2022/01/31 10:23:12;;;;;;;;;0.67;0.67;;;;;8.41;61.87;101613.44;5117055;27;45382;-87
2022/01/31 10:25:38;;;;;;;;;0.33;0.33;;;;;9.03;61.63;101710.31;5140056;27;45326;-85
2022/01/31 10:28:11;;;;;;;;;4.00;1.67;;;;;8.83;62.01;101676.03;5137501;27;45354;-85
2022/01/31 10:30:37;;;;;;;;;3.00;2.00;;;;;8.99;61.37;101644.88;5121205;27;48124;-81
2022/01/31 10:33:08;;;;;;;;;0.33;0.33;;;;;9.46;60.69;101701.44;5136324;27;45346;-83
2022/01/31 10:35:33;;;;;;;;;1.67;1.67;;;;;8.92;60.07;101581.09;5134529;27;45426;-82
2022/01/31 10:38:10;;;;;;;;;1.00;1.00;;;;;9.63;58.69;101703.84;5139936;27;45447;-82
2022/01/31 10:54:11;;;;;;;;;2.00;2.00;;;;;9.98;56.43;101685.69;5139000;27;45335;-83
2022/01/31 10:56:46;;;;;;;;;2.00;2.00;;;;;10.03;57.20;101684.13;5123669;27;45467;-86
2022/01/31 10:59:22;;;;;;;;;0.00;0.00;;;;;10.22;54.94;101699.81;5121567;27;45440;-83
2022/01/31 11:01:51;;;;;;;;;2.00;1.00;;;;;10.30;55.24;101711.59;5100622;27;48236;-84
2022/01/31 11:04:16;;;;;;;;;2.33;2.00;;;;;9.95;54.32;101724.47;5118127;27;45603;-82
2022/01/31 11:06:44;;;;;;;;;3.00;1.00;;;;;9.88;55.46;101666.78;5131037;27;45692;-83
2022/01/31 11:09:14;;;;;;;;;1.00;1.00;;;;;9.95;54.23;101719.19;5140084;27;45380;-83
2022/01/31 11:11:43;;;;;;;;;1.00;1.00;;;;;10.07;54.09;101734.66;5126603;27;45562;-82
2022/01/31 11:14:10;;;;;;;;;2.67;0.33;;;;;10.11;54.38;101725.06;5118603;27;45541;-81
2022/01/31 11:17:29;;;;;;;;;;;;;;;;;;;;;
2022/01/31 11:20:06;;;;;;;;;0.67;0.67;;;;;10.27;52.38;101727.41;5117311;27;68472;-81
2022/01/31 11:22:36;;;;;;;;;1.00;1.00;;;;;10.12;53.58;101684.44;5100298;27;47742;-80
2022/01/31 11:25:05;;;;;;;;;2.50;0.00;;;;;10.43;51.66;101728.88;5118899;27;45228;-80
2022/01/31 11:27:31;;;;;;;;;4.00;2.00;;;;;10.33;50.69;101728.50;5119075;27;45786;-80
2022/01/31 11:29:57;;;;;;;;;1.00;1.00;;;;;9.88;51.88;101658.84;5119251;27;45357;-84
2022/01/31 11:32:25;;;;;;;;;1.00;1.00;;;;;9.84;51.01;101634.81;5118895;27;46370;-85
2022/01/31 11:34:51;;;;;;;;;1.00;1.00;;;;;10.39;50.81;101719.03;5100694;27;45325;-81
2022/01/31 11:37:21;;;;;;;;;2.75;1.00;;;;;10.27;50.68;101671.72;5125013;27;45309;-82
2022/01/31 11:39:53;;;;;;;;;1.50;1.00;;;;;10.24;50.15;101658.34;5104589;27;45557;-82
2022/01/31 11:42:20;;;;;;;;;3.00;1.67;;;;;10.03;49.81;101654.97;5126452;27;45422;-80
2022/01/31 11:44:48;;;;;;;;;1.00;1.00;;;;;10.37;49.50;101696.84;5118395;27;45460;-81
2022/01/31 11:47:14;;;;;;;;;0.00;0.00;;;;;10.02;49.41;101699.09;5129891;27;45560;-85
2022/01/31 11:50:04;;;;;;;;;1.00;0.00;;;;;9.91;51.37;101704.00;5136228;27;45415;-85
2022/01/31 11:52:33;;;;;;;;;0.00;0.00;;;;;9.73;55.30;101695.38;5134897;27;46631;-84
2022/01/31 11:55:02;;;;;;;;;0.00;0.00;;;;;9.82;58.56;101739.88;5100389;27;45536;-80
2022/01/31 11:57:31;;;;;;;;;1.00;0.00;;;;;9.42;57.48;101667.72;5122383;27;45265;-80
2022/01/31 11:59:59;;;;;;;;;3.00;1.67;;;;;9.89;55.72;101744.59;5100074;27;45498;-78
2022/01/31 12:02:29;;;;;;;;;2.00;1.00;;;;;9.99;55.03;101746.72;5120917;27;46382;-80
2022/01/31 12:05:01;;;;;;;;;1.00;1.00;;;;;9.55;55.62;101685.91;5120702;27;45478;-79